sensor_id;sensor_type;location;lat;lon;timestamp;pressure;altitude;pressure_sealevel;temperature;humidity
26083;BME280;13848;49.018;12.078;2022-12-24T00:00:54;96965.00;;;10.29;90.59
26083;BME280;13848;49.018;12.078;2022-12-24T00:03:20;96965.38;;;10.32;90.75
26083;BME280;13848;49.018;12.078;2022-12-24T00:05:46;96971.88;;;10.36;90.38
26083;BME280;13848;49.018;12.078;2022-12-24T00:08:12;96981.03;;;10.35;90.32
26083;BME280;13848;49.018;12.078;2022-12-24T00:10:39;96984.31;;;10.37;90.40
26083;BME280;13848;49.018;12.078;2022-12-24T00:13:05;96982.22;;;10.39;90.11
26083;BME280;13848;49.018;12.078;2022-12-24T00:15:31;96989.94;;;10.36;90.49
26083;BME280;13848;49.018;12.078;2022-12-24T00:17:57;96984.13;;;10.27;90.68
26083;BME280;13848;49.018;12.078;2022-12-24T00:20:23;96965.56;;;10.19;89.09
26083;BME280;13848;49.018;12.078;2022-12-24T00:22:49;96980.13;;;10.06;88.13
26083;BME280;13848;49.018;12.078;2022-12-24T00:25:15;96971.09;;;10.01;88.07
26083;BME280;13848;49.018;12.078;2022-12-24T00:27:42;96963.59;;;9.91;87.94
26083;BME280;13848;49.018;12.078;2022-12-24T00:30:09;96982.25;;;9.93;88.03
26083;BME280;13848;49.018;12.078;2022-12-24T00:32:35;96975.22;;;9.92;87.78
26083;BME280;13848;49.018;12.078;2022-12-24T00:35:01;96983.88;;;9.82;86.96
26083;BME280;13848;49.018;12.078;2022-12-24T00:37:26;96990.19;;;9.88;86.78
26083;BME280;13848;49.018;12.078;2022-12-24T00:39:52;96974.03;;;9.88;86.16
26083;BME280;13848;49.018;12.078;2022-12-24T00:42:19;96993.34;;;9.84;86.02
26083;BME280;13848;49.018;12.078;2022-12-24T00:44:46;96996.03;;;9.84;85.76
26083;BME280;13848;49.018;12.078;2022-12-24T00:47:12;96999.78;;;9.83;86.17
26083;BME280;13848;49.018;12.078;2022-12-24T00:49:38;97008.91;;;9.82;85.78
26083;BME280;13848;49.018;12.078;2022-12-24T00:52:04;97002.03;;;9.86;85.73
26083;BME280;13848;49.018;12.078;2022-12-24T00:54:30;97011.97;;;9.86;85.89
26083;BME280;13848;49.018;12.078;2022-12-24T00:56:56;97013.50;;;9.82;86.30
26083;BME280;13848;49.018;12.078;2022-12-24T00:59:22;97015.94;;;9.83;85.89
26083;BME280;13848;49.018;12.078;2022-12-24T01:01:49;97020.28;;;9.84;85.73
26083;BME280;13848;49.018;12.078;2022-12-24T01:04:15;97024.00;;;9.83;86.21
26083;BME280;13848;49.018;12.078;2022-12-24T01:06:41;97021.00;;;9.80;85.99
26083;BME280;13848;49.018;12.078;2022-12-24T01:09:07;97022.00;;;9.79;85.85
26083;BME280;13848;49.018;12.078;2022-12-24T01:11:33;97030.09;;;9.79;86.13
26083;BME280;13848;49.018;12.078;2022-12-24T01:13:59;97025.06;;;9.82;86.01
26083;BME280;13848;49.018;12.078;2022-12-24T01:16:25;97023.44;;;9.81;85.30
26083;BME280;13848;49.018;12.078;2022-12-24T01:18:53;97021.88;;;9.74;85.40
26083;BME280;13848;49.018;12.078;2022-12-24T01:21:19;97026.47;;;9.73;85.49
26083;BME280;13848;49.018;12.078;2022-12-24T01:23:45;97021.44;;;9.77;85.19
26083;BME280;13848;49.018;12.078;2022-12-24T01:26:11;97032.44;;;9.75;85.17
26083;BME280;13848;49.018;12.078;2022-12-24T01:28:37;97039.34;;;9.71;85.35
26083;BME280;13848;49.018;12.078;2022-12-24T01:31:09;97045.44;;;9.78;85.02
26083;BME280;13848;49.018;12.078;2022-12-24T01:33:35;97054.19;;;9.74;85.17
26083;BME280;13848;49.018;12.078;2022-12-24T01:36:03;97059.94;;;9.77;85.12
26083;BME280;13848;49.018;12.078;2022-12-24T01:38:29;97065.44;;;9.71;85.00
26083;BME280;13848;49.018;12.078;2022-12-24T01:40:55;97072.09;;;9.68;84.50
26083;BME280;13848;49.018;12.078;2022-12-24T01:43:21;97072.47;;;9.72;85.22
26083;BME280;13848;49.018;12.078;2022-12-24T01:45:49;97080.16;;;9.68;85.14
26083;BME280;13848;49.018;12.078;2022-12-24T01:48:22;97089.53;;;9.66;84.90
26083;BME280;13848;49.018;12.078;2022-12-24T01:50:53;97094.09;;;9.65;85.13
26083;BME280;13848;49.018;12.078;2022-12-24T01:53:23;97107.19;;;9.62;85.27
26083;BME280;13848;49.018;12.078;2022-12-24T01:55:49;97104.16;;;9.58;85.03
26083;BME280;13848;49.018;12.078;2022-12-24T01:58:18;97102.50;;;9.57;84.19
26083;BME280;13848;49.018;12.078;2022-12-24T02:00:46;97105.75;;;9.47;83.86
26083;BME280;13848;49.018;12.078;2022-12-24T02:03:12;97099.56;;;9.47;83.83
26083;BME280;13848;49.018;12.078;2022-12-24T02:05:41;97086.53;;;9.44;82.03
26083;BME280;13848;49.018;12.078;2022-12-24T02:08:09;97098.13;;;9.44;81.94
26083;BME280;13848;49.018;12.078;2022-12-24T02:10:37;97101.97;;;9.37;81.45
26083;BME280;13848;49.018;12.078;2022-12-24T02:13:04;97096.16;;;9.40;79.43
26083;BME280;13848;49.018;12.078;2022-12-24T02:15:37;97101.38;;;9.35;80.50
26083;BME280;13848;49.018;12.078;2022-12-24T02:18:13;97106.75;;;9.35;81.00
26083;BME280;13848;49.018;12.078;2022-12-24T02:23:56;97112.72;;;9.37;80.96
26083;BME280;13848;49.018;12.078;2022-12-24T02:26:39;97122.91;;;9.35;81.51
26083;BME280;13848;49.018;12.078;2022-12-24T02:29:21;97126.03;;;9.31;81.33
26083;BME280;13848;49.018;12.078;2022-12-24T02:31:58;97122.53;;;9.31;81.45
26083;BME280;13848;49.018;12.078;2022-12-24T02:34:29;97126.84;;;9.32;81.55
26083;BME280;13848;49.018;12.078;2022-12-24T02:36:59;97121.13;;;9.28;81.81
26083;BME280;13848;49.018;12.078;2022-12-24T02:39:32;97124.84;;;9.27;81.98
26083;BME280;13848;49.018;12.078;2022-12-24T02:42:01;97124.84;;;9.27;82.39
26083;BME280;13848;49.018;12.078;2022-12-24T02:44:30;97134.44;;;9.23;82.59
26083;BME280;13848;49.018;12.078;2022-12-24T02:47:01;97124.84;;;9.27;82.22
26083;BME280;13848;49.018;12.078;2022-12-24T02:49:29;97129.06;;;9.23;81.50
26083;BME280;13848;49.018;12.078;2022-12-24T02:51:55;97136.50;;;9.21;81.12
26083;BME280;13848;49.018;12.078;2022-12-24T02:54:21;97154.75;;;9.19;81.64
26083;BME280;13848;49.018;12.078;2022-12-24T02:56:59;97149.38;;;9.19;81.59
26083;BME280;13848;49.018;12.078;2022-12-24T02:59:36;97153.13;;;9.18;81.89
26083;BME280;13848;49.018;12.078;2022-12-24T03:02:17;97164.91;;;9.17;81.70
26083;BME280;13848;49.018;12.078;2022-12-24T03:04:56;97165.75;;;9.18;82.12
26083;BME280;13848;49.018;12.078;2022-12-24T03:07:29;97167.63;;;9.17;81.63
26083;BME280;13848;49.018;12.078;2022-12-24T03:10:05;97167.16;;;9.20;81.87
26083;BME280;13848;49.018;12.078;2022-12-24T03:12:38;97173.81;;;9.18;82.04
26083;BME280;13848;49.018;12.078;2022-12-24T03:15:07;97167.00;;;9.15;82.43
26083;BME280;13848;49.018;12.078;2022-12-24T03:17:37;97173.44;;;9.14;82.14
26083;BME280;13848;49.018;12.078;2022-12-24T03:20:05;97182.31;;;9.15;82.65
26083;BME280;13848;49.018;12.078;2022-12-24T03:22:34;97185.47;;;9.12;82.63
26083;BME280;13848;49.018;12.078;2022-12-24T03:25:00;97191.19;;;9.15;82.83
26083;BME280;13848;49.018;12.078;2022-12-24T03:27:28;97189.56;;;9.14;82.85
26083;BME280;13848;49.018;12.078;2022-12-24T03:29:55;97197.03;;;9.12;83.07
26083;BME280;13848;49.018;12.078;2022-12-24T03:32:22;97197.94;;;9.06;83.73
26083;BME280;13848;49.018;12.078;2022-12-24T03:34:50;97196.91;;;9.07;83.37
26083;BME280;13848;49.018;12.078;2022-12-24T03:37:16;97189.25;;;9.04;83.64
26083;BME280;13848;49.018;12.078;2022-12-24T03:39:42;97191.34;;;9.02;84.02
26083;BME280;13848;49.018;12.078;2022-12-24T03:42:08;97201.69;;;9.05;83.82
26083;BME280;13848;49.018;12.078;2022-12-24T03:44:34;97200.88;;;9.04;83.85
26083;BME280;13848;49.018;12.078;2022-12-24T03:47:00;97205.19;;;9.05;84.15
26083;BME280;13848;49.018;12.078;2022-12-24T03:49:26;97200.63;;;9.06;84.45
26083;BME280;13848;49.018;12.078;2022-12-24T03:51:53;97213.41;;;9.11;84.12
26083;BME280;13848;49.018;12.078;2022-12-24T03:54:19;97211.53;;;9.11;84.20
26083;BME280;13848;49.018;12.078;2022-12-24T03:56:45;97214.91;;;9.06;84.34
26083;BME280;13848;49.018;12.078;2022-12-24T03:59:11;97230.22;;;9.06;84.52
26083;BME280;13848;49.018;12.078;2022-12-24T04:01:37;97229.66;;;9.16;84.23
26083;BME280;13848;49.018;12.078;2022-12-24T04:04:03;97234.22;;;9.15;83.93
26083;BME280;13848;49.018;12.078;2022-12-24T04:06:35;97247.09;;;9.13;84.18
26083;BME280;13848;49.018;12.078;2022-12-24T04:09:02;97246.66;;;9.16;84.18
26083;BME280;13848;49.018;12.078;2022-12-24T04:11:28;97242.91;;;8.99;84.58
26083;BME280;13848;49.018;12.078;2022-12-24T04:13:54;97248.47;;;8.79;85.92
26083;BME280;13848;49.018;12.078;2022-12-24T04:16:20;97245.72;;;8.86;85.73
26083;BME280;13848;49.018;12.078;2022-12-24T04:18:46;97259.38;;;8.84;86.08
26083;BME280;13848;49.018;12.078;2022-12-24T04:21:12;97255.63;;;8.85;85.91
26083;BME280;13848;49.018;12.078;2022-12-24T04:23:39;97260.50;;;8.76;86.70
26083;BME280;13848;49.018;12.078;2022-12-24T04:26:08;97267.22;;;8.86;86.59
26083;BME280;13848;49.018;12.078;2022-12-24T04:28:35;97263.19;;;8.76;87.04
26083;BME280;13848;49.018;12.078;2022-12-24T04:31:04;97262.50;;;8.81;86.77
26083;BME280;13848;49.018;12.078;2022-12-24T04:33:30;97258.97;;;8.80;86.74
26083;BME280;13848;49.018;12.078;2022-12-24T04:35:57;97268.66;;;8.63;87.89
26083;BME280;13848;49.018;12.078;2022-12-24T04:38:23;97261.22;;;8.65;87.92
26083;BME280;13848;49.018;12.078;2022-12-24T04:40:57;97259.50;;;8.71;87.49
26083;BME280;13848;49.018;12.078;2022-12-24T04:43:24;97262.28;;;8.83;86.91
26083;BME280;13848;49.018;12.078;2022-12-24T04:45:50;97256.47;;;8.86;86.63
26083;BME280;13848;49.018;12.078;2022-12-24T04:48:16;97266.50;;;8.97;86.34
26083;BME280;13848;49.018;12.078;2022-12-24T04:50:42;97273.34;;;8.93;86.41
26083;BME280;13848;49.018;12.078;2022-12-24T04:53:08;97282.91;;;8.89;86.60
26083;BME280;13848;49.018;12.078;2022-12-24T04:55:34;97289.47;;;8.93;86.24
26083;BME280;13848;49.018;12.078;2022-12-24T04:58:00;97283.09;;;8.94;85.99
26083;BME280;13848;49.018;12.078;2022-12-24T05:00:27;97287.84;;;8.92;86.03
26083;BME280;13848;49.018;12.078;2022-12-24T05:02:53;97294.50;;;8.89;86.07
26083;BME280;13848;49.018;12.078;2022-12-24T05:05:19;97293.72;;;8.82;86.32
26083;BME280;13848;49.018;12.078;2022-12-24T05:07:45;97296.63;;;8.80;86.49
26083;BME280;13848;49.018;12.078;2022-12-24T05:10:11;97302.44;;;8.77;86.35
26083;BME280;13848;49.018;12.078;2022-12-24T05:12:37;97307.19;;;8.75;86.48
26083;BME280;13848;49.018;12.078;2022-12-24T05:15:04;97311.75;;;8.75;86.67
26083;BME280;13848;49.018;12.078;2022-12-24T05:17:31;97310.94;;;8.74;86.83
26083;BME280;13848;49.018;12.078;2022-12-24T05:19:57;97319.81;;;8.75;86.82
26083;BME280;13848;49.018;12.078;2022-12-24T05:22:24;97312.38;;;8.77;86.84
26083;BME280;13848;49.018;12.078;2022-12-24T05:24:50;97315.16;;;8.64;87.11
26083;BME280;13848;49.018;12.078;2022-12-24T05:27:19;97316.59;;;8.66;87.37
26083;BME280;13848;49.018;12.078;2022-12-24T05:29:45;97319.47;;;8.71;87.17
26083;BME280;13848;49.018;12.078;2022-12-24T05:32:11;97321.69;;;8.74;87.27
26083;BME280;13848;49.018;12.078;2022-12-24T05:34:38;97322.38;;;8.70;87.36
26083;BME280;13848;49.018;12.078;2022-12-24T05:37:04;97320.81;;;8.80;87.06
26083;BME280;13848;49.018;12.078;2022-12-24T05:39:30;97328.88;;;8.80;86.48
26083;BME280;13848;49.018;12.078;2022-12-24T05:41:56;97336.75;;;8.82;86.52
26083;BME280;13848;49.018;12.078;2022-12-24T05:44:22;97353.69;;;8.83;86.34
26083;BME280;13848;49.018;12.078;2022-12-24T05:46:48;97345.00;;;8.80;86.15
26083;BME280;13848;49.018;12.078;2022-12-24T05:49:14;97348.56;;;8.74;86.63
26083;BME280;13848;49.018;12.078;2022-12-24T05:51:41;97349.44;;;8.68;86.67
26083;BME280;13848;49.018;12.078;2022-12-24T05:54:07;97349.63;;;8.73;86.34
26083;BME280;13848;49.018;12.078;2022-12-24T05:56:33;97352.13;;;8.68;86.48
26083;BME280;13848;49.018;12.078;2022-12-24T05:58:59;97353.00;;;8.62;86.79
26083;BME280;13848;49.018;12.078;2022-12-24T06:01:25;97356.03;;;8.72;86.26
26083;BME280;13848;49.018;12.078;2022-12-24T06:03:51;97365.50;;;8.82;85.86
26083;BME280;13848;49.018;12.078;2022-12-24T06:06:19;97372.50;;;8.83;85.83
26083;BME280;13848;49.018;12.078;2022-12-24T06:08:48;97370.88;;;8.82;85.47
26083;BME280;13848;49.018;12.078;2022-12-24T06:11:17;97376.44;;;8.80;85.40
26083;BME280;13848;49.018;12.078;2022-12-24T06:13:43;97374.84;;;8.72;85.58
26083;BME280;13848;49.018;12.078;2022-12-24T06:16:12;97374.19;;;8.77;85.52
26083;BME280;13848;49.018;12.078;2022-12-24T06:18:38;97377.09;;;8.75;85.55
26083;BME280;13848;49.018;12.078;2022-12-24T06:21:05;97376.72;;;8.72;85.25
26083;BME280;13848;49.018;12.078;2022-12-24T06:23:34;97369.06;;;8.69;85.42
26083;BME280;13848;49.018;12.078;2022-12-24T06:26:02;97371.72;;;8.75;85.33
26083;BME280;13848;49.018;12.078;2022-12-24T06:28:30;97374.25;;;8.70;85.20
26083;BME280;13848;49.018;12.078;2022-12-24T06:30:56;97374.25;;;8.70;85.16
26083;BME280;13848;49.018;12.078;2022-12-24T06:33:22;97373.56;;;8.75;85.03
26083;BME280;13848;49.018;12.078;2022-12-24T06:35:48;97368.81;;;8.77;84.73
26083;BME280;13848;49.018;12.078;2022-12-24T06:38:14;97376.88;;;8.77;84.95
26083;BME280;13848;49.018;12.078;2022-12-24T06:40:42;97378.63;;;8.65;84.96
26083;BME280;13848;49.018;12.078;2022-12-24T06:43:09;97374.50;;;8.62;85.10
26083;BME280;13848;49.018;12.078;2022-12-24T06:45:36;97389.25;;;8.53;84.99
26083;BME280;13848;49.018;12.078;2022-12-24T06:48:02;97398.31;;;8.52;85.46
26083;BME280;13848;49.018;12.078;2022-12-24T06:50:27;97402.31;;;8.43;85.74
26083;BME280;13848;49.018;12.078;2022-12-24T06:52:54;97410.38;;;8.43;85.79
26083;BME280;13848;49.018;12.078;2022-12-24T06:55:20;97403.13;;;8.43;86.00
26083;BME280;13848;49.018;12.078;2022-12-24T06:57:46;97406.00;;;8.48;85.69
26083;BME280;13848;49.018;12.078;2022-12-24T07:00:14;97408.75;;;8.42;85.88
26083;BME280;13848;49.018;12.078;2022-12-24T07:02:40;97406.47;;;8.39;86.04
26083;BME280;13848;49.018;12.078;2022-12-24T07:05:06;97412.84;;;8.44;85.96
26083;BME280;13848;49.018;12.078;2022-12-24T07:07:32;97419.63;;;8.53;85.78
26083;BME280;13848;49.018;12.078;2022-12-24T07:09:58;97412.38;;;8.54;85.60
26083;BME280;13848;49.018;12.078;2022-12-24T07:12:25;97413.63;;;8.51;85.54
26083;BME280;13848;49.018;12.078;2022-12-24T07:14:51;97415.94;;;8.48;85.86
26083;BME280;13848;49.018;12.078;2022-12-24T07:17:18;97410.34;;;8.49;85.44
26083;BME280;13848;49.018;12.078;2022-12-24T07:19:44;97412.97;;;8.56;85.72
26083;BME280;13848;49.018;12.078;2022-12-24T07:22:10;97413.44;;;8.53;85.92
26083;BME280;13848;49.018;12.078;2022-12-24T07:24:36;97409.47;;;8.56;85.88
26083;BME280;13848;49.018;12.078;2022-12-24T07:27:02;97415.91;;;8.55;85.73
26083;BME280;13848;49.018;12.078;2022-12-24T07:29:28;97426.41;;;8.56;85.75
26083;BME280;13848;49.018;12.078;2022-12-24T07:31:54;97434.94;;;8.53;85.84
26083;BME280;13848;49.018;12.078;2022-12-24T07:34:21;97434.28;;;8.51;85.73
26083;BME280;13848;49.018;12.078;2022-12-24T07:36:47;97441.09;;;8.60;85.98
26083;BME280;13848;49.018;12.078;2022-12-24T07:39:13;97451.22;;;8.58;85.83
26083;BME280;13848;49.018;12.078;2022-12-24T07:41:39;97445.84;;;8.58;85.68
26083;BME280;13848;49.018;12.078;2022-12-24T07:44:05;97471.25;;;8.62;85.65
26083;BME280;13848;49.018;12.078;2022-12-24T07:46:31;97466.50;;;8.64;85.36
26083;BME280;13848;49.018;12.078;2022-12-24T07:48:57;97470.38;;;8.68;85.73
26083;BME280;13848;49.018;12.078;2022-12-24T07:51:24;97481.13;;;8.68;85.50
26083;BME280;13848;49.018;12.078;2022-12-24T07:53:50;97485.28;;;8.71;85.68
26083;BME280;13848;49.018;12.078;2022-12-24T07:56:16;97470.56;;;8.73;85.55
26083;BME280;13848;49.018;12.078;2022-12-24T07:58:42;97474.53;;;8.71;86.00
26083;BME280;13848;49.018;12.078;2022-12-24T08:01:08;97463.31;;;8.74;86.21
26083;BME280;13848;49.018;12.078;2022-12-24T08:03:35;97467.84;;;8.80;86.38
26083;BME280;13848;49.018;12.078;2022-12-24T08:06:01;97464.50;;;8.85;86.34
26083;BME280;13848;49.018;12.078;2022-12-24T08:08:28;97473.16;;;8.87;86.24
26083;BME280;13848;49.018;12.078;2022-12-24T08:10:59;97479.00;;;8.84;86.71
26083;BME280;13848;49.018;12.078;2022-12-24T08:13:25;97482.22;;;8.92;86.33
26083;BME280;13848;49.018;12.078;2022-12-24T08:15:51;97485.03;;;9.11;87.49
26083;BME280;13848;49.018;12.078;2022-12-24T08:18:17;97474.31;;;9.04;86.27
26083;BME280;13848;49.018;12.078;2022-12-24T08:20:43;97481.34;;;9.05;86.46
26083;BME280;13848;49.018;12.078;2022-12-24T08:23:09;97477.44;;;9.01;86.69
26083;BME280;13848;49.018;12.078;2022-12-24T08:25:37;97482.78;;;9.07;86.41
26083;BME280;13848;49.018;12.078;2022-12-24T08:28:06;97501.50;;;9.21;86.23
26083;BME280;13848;49.018;12.078;2022-12-24T08:30:32;97474.59;;;9.21;86.11
26083;BME280;13848;49.018;12.078;2022-12-24T08:32:58;97473.94;;;9.25;85.87
26083;BME280;13848;49.018;12.078;2022-12-24T08:35:24;97485.38;;;9.21;85.96
26083;BME280;13848;49.018;12.078;2022-12-24T08:37:50;97497.16;;;9.95;87.47
26083;BME280;13848;49.018;12.078;2022-12-24T08:40:16;97491.94;;;10.00;85.21
26083;BME280;13848;49.018;12.078;2022-12-24T08:42:43;97486.72;;;10.05;84.14
26083;BME280;13848;49.018;12.078;2022-12-24T08:45:10;97503.19;;;9.72;84.34
26083;BME280;13848;49.018;12.078;2022-12-24T08:47:36;97490.84;;;9.64;84.39
26083;BME280;13848;49.018;12.078;2022-12-24T08:50:02;97499.50;;;9.66;83.95
26083;BME280;13848;49.018;12.078;2022-12-24T08:52:28;97507.41;;;9.61;84.19
26083;BME280;13848;49.018;12.078;2022-12-24T08:54:54;97515.31;;;9.56;83.78
26083;BME280;13848;49.018;12.078;2022-12-24T08:57:20;97525.25;;;9.55;83.85
26083;BME280;13848;49.018;12.078;2022-12-24T08:59:47;97525.25;;;9.55;83.72
26083;BME280;13848;49.018;12.078;2022-12-24T09:02:13;97535.97;;;9.62;83.80
26083;BME280;13848;49.018;12.078;2022-12-24T09:04:39;97540.97;;;9.58;83.76
26083;BME280;13848;49.018;12.078;2022-12-24T09:07:06;97541.97;;;9.64;83.58
26083;BME280;13848;49.018;12.078;2022-12-24T09:09:32;97554.66;;;9.57;83.82
26083;BME280;13848;49.018;12.078;2022-12-24T09:11:58;97563.75;;;9.63;83.84
26083;BME280;13848;49.018;12.078;2022-12-24T09:14:24;97565.16;;;9.65;83.69
26083;BME280;13848;49.018;12.078;2022-12-24T09:16:51;97563.28;;;9.66;83.33
26083;BME280;13848;49.018;12.078;2022-12-24T09:19:17;97574.88;;;9.66;83.22
26083;BME280;13848;49.018;12.078;2022-12-24T09:21:43;97573.22;;;9.65;83.44
26083;BME280;13848;49.018;12.078;2022-12-24T09:24:09;97579.72;;;9.57;83.44
26083;BME280;13848;49.018;12.078;2022-12-24T09:26:35;97580.81;;;9.43;83.63
26083;BME280;13848;49.018;12.078;2022-12-24T09:29:01;97576.63;;;9.54;83.83
26083;BME280;13848;49.018;12.078;2022-12-24T09:31:28;97581.06;;;9.67;83.66
26083;BME280;13848;49.018;12.078;2022-12-24T09:33:55;97575.31;;;9.63;83.10
26083;BME280;13848;49.018;12.078;2022-12-24T09:36:21;97577.84;;;9.58;83.03
26083;BME280;13848;49.018;12.078;2022-12-24T09:38:47;97591.03;;;9.66;83.23
26083;BME280;13848;49.018;12.078;2022-12-24T09:41:19;97587.34;;;9.60;82.61
26083;BME280;13848;49.018;12.078;2022-12-24T09:43:53;97578.66;;;9.58;82.85
26083;BME280;13848;49.018;12.078;2022-12-24T09:46:23;97591.84;;;9.67;83.23
26083;BME280;13848;49.018;12.078;2022-12-24T09:48:56;97593.72;;;9.66;82.51
26083;BME280;13848;49.018;12.078;2022-12-24T09:51:24;97598.94;;;9.61;81.97
26083;BME280;13848;49.018;12.078;2022-12-24T09:53:54;97596.09;;;9.49;82.22
26083;BME280;13848;49.018;12.078;2022-12-24T09:56:25;97587.38;;;9.54;81.90
26083;BME280;13848;49.018;12.078;2022-12-24T09:58:54;97584.03;;;9.58;81.79
26083;BME280;13848;49.018;12.078;2022-12-24T10:01:20;97588.09;;;9.68;82.42
26083;BME280;13848;49.018;12.078;2022-12-24T10:03:46;97591.31;;;9.83;82.23
26083;BME280;13848;49.018;12.078;2022-12-24T10:06:16;97592.91;;;9.91;81.06
26083;BME280;13848;49.018;12.078;2022-12-24T10:08:55;97591.19;;;9.96;81.00
26083;BME280;13848;49.018;12.078;2022-12-24T10:11:28;97591.00;;;9.98;80.14
26083;BME280;13848;49.018;12.078;2022-12-24T10:14:04;97602.09;;;10.08;80.39
26083;BME280;13848;49.018;12.078;2022-12-24T10:16:41;97602.00;;;10.14;80.66
26083;BME280;13848;49.018;12.078;2022-12-24T10:19:16;97600.75;;;10.17;79.48
26083;BME280;13848;49.018;12.078;2022-12-24T10:21:54;97589.63;;;10.38;80.05
26083;BME280;13848;49.018;12.078;2022-12-24T10:24:25;97591.28;;;10.58;79.80
26083;BME280;13848;49.018;12.078;2022-12-24T10:26:56;97598.91;;;10.61;78.73
26083;BME280;13848;49.018;12.078;2022-12-24T10:29:27;97595.19;;;10.62;79.07
26083;BME280;13848;49.018;12.078;2022-12-24T10:31:58;97597.25;;;10.60;77.78
26083;BME280;13848;49.018;12.078;2022-12-24T10:34:28;97599.78;;;10.55;78.88
26083;BME280;13848;49.018;12.078;2022-12-24T10:36:58;97597.25;;;10.17;77.24
26083;BME280;13848;49.018;12.078;2022-12-24T10:39:25;97602.03;;;10.39;78.55
26083;BME280;13848;49.018;12.078;2022-12-24T10:41:54;97599.81;;;10.73;77.41
26083;BME280;13848;49.018;12.078;2022-12-24T10:44:23;97597.25;;;10.60;76.81
26083;BME280;13848;49.018;12.078;2022-12-24T10:46:49;97603.63;;;10.65;77.09
26083;BME280;13848;49.018;12.078;2022-12-24T10:49:18;97610.56;;;11.28;77.70
26083;BME280;13848;49.018;12.078;2022-12-24T10:51:48;97602.47;;;11.28;75.97
26083;BME280;13848;49.018;12.078;2022-12-24T10:54:19;97608.22;;;12.04;76.36
26083;BME280;13848;49.018;12.078;2022-12-24T10:56:46;97612.09;;;12.90;71.78
26083;BME280;13848;49.018;12.078;2022-12-24T10:59:24;97608.53;;;14.15;71.42
26083;BME280;13848;49.018;12.078;2022-12-24T11:01:52;97599.81;;;13.68;69.25
26083;BME280;13848;49.018;12.078;2022-12-24T11:04:20;97605.97;;;13.92;69.00
26083;BME280;13848;49.018;12.078;2022-12-24T11:06:52;97600.78;;;14.24;65.35
26083;BME280;13848;49.018;12.078;2022-12-24T11:09:22;97594.13;;;13.81;67.70
26083;BME280;13848;49.018;12.078;2022-12-24T11:11:49;97596.94;;;13.57;67.82
26083;BME280;13848;49.018;12.078;2022-12-24T11:14:16;97603.44;;;13.28;68.17
26083;BME280;13848;49.018;12.078;2022-12-24T11:16:48;97595.66;;;13.77;69.40
26083;BME280;13848;49.018;12.078;2022-12-24T11:19:17;97601.91;;;13.77;65.37
26083;BME280;13848;49.018;12.078;2022-12-24T11:21:44;97596.34;;;14.51;67.50
26083;BME280;13848;49.018;12.078;2022-12-24T11:24:22;97610.03;;;15.00;62.26
26083;BME280;13848;49.018;12.078;2022-12-24T11:26:50;97596.72;;;15.42;64.64
26083;BME280;13848;49.018;12.078;2022-12-24T11:29:19;97588.44;;;16.13;61.11
26083;BME280;13848;49.018;12.078;2022-12-24T11:31:46;97595.22;;;15.79;58.22
26083;BME280;13848;49.018;12.078;2022-12-24T11:34:20;97589.06;;;15.17;60.94
26083;BME280;13848;49.018;12.078;2022-12-24T11:36:47;97595.16;;;16.06;59.71
26083;BME280;13848;49.018;12.078;2022-12-24T11:39:18;97599.44;;;16.29;57.58
26083;BME280;13848;49.018;12.078;2022-12-24T11:41:46;97589.84;;;16.58;57.87
26083;BME280;13848;49.018;12.078;2022-12-24T11:44:13;97594.47;;;17.00;56.26
26083;BME280;13848;49.018;12.078;2022-12-24T11:46:41;97595.19;;;17.48;51.32
26083;BME280;13848;49.018;12.078;2022-12-24T11:49:20;97592.25;;;17.70;54.45
26083;BME280;13848;49.018;12.078;2022-12-24T11:52:03;97581.41;;;17.80;52.15
26083;BME280;13848;49.018;12.078;2022-12-24T11:54:42;97585.38;;;17.42;53.63
26083;BME280;13848;49.018;12.078;2022-12-24T11:57:13;97576.72;;;18.82;53.48
26083;BME280;13848;49.018;12.078;2022-12-24T11:59:43;97589.44;;;17.34;50.66
26083;BME280;13848;49.018;12.078;2022-12-24T12:02:16;97574.38;;;17.21;55.40
26083;BME280;13848;49.018;12.078;2022-12-24T12:04:46;97570.19;;;16.51;52.46
26083;BME280;13848;49.018;12.078;2022-12-24T12:07:18;97582.22;;;17.80;51.14
26083;BME280;13848;49.018;12.078;2022-12-24T12:09:48;97569.06;;;18.64;50.96
26083;BME280;13848;49.018;12.078;2022-12-24T12:12:21;97576.16;;;18.85;50.73
26083;BME280;13848;49.018;12.078;2022-12-24T12:14:48;97572.63;;;18.65;49.02
26083;BME280;13848;49.018;12.078;2022-12-24T12:17:26;97572.34;;;19.96;45.50
26083;BME280;13848;49.018;12.078;2022-12-24T12:19:57;97574.63;;;20.17;46.41
26083;BME280;13848;49.018;12.078;2022-12-24T12:22:28;97577.22;;;20.67;46.26
26083;BME280;13848;49.018;12.078;2022-12-24T12:24:57;97578.84;;;21.64;43.60
26083;BME280;13848;49.018;12.078;2022-12-24T12:27:30;97586.97;;;22.07;43.52
26083;BME280;13848;49.018;12.078;2022-12-24T12:30:00;97590.97;;;20.62;43.43
26083;BME280;13848;49.018;12.078;2022-12-24T12:32:34;97590.34;;;20.41;44.24
26083;BME280;13848;49.018;12.078;2022-12-24T12:35:08;97595.72;;;19.13;43.39
26083;BME280;13848;49.018;12.078;2022-12-24T12:37:42;97589.03;;;19.45;45.60
26083;BME280;13848;49.018;12.078;2022-12-24T12:40:12;97587.63;;;20.02;44.66
26083;BME280;13848;49.018;12.078;2022-12-24T12:42:44;97586.28;;;19.50;45.13
26083;BME280;13848;49.018;12.078;2022-12-24T12:45:28;97582.41;;;20.34;42.87
26083;BME280;13848;49.018;12.078;2022-12-24T12:50:46;97590.97;;;18.28;45.86
26083;BME280;13848;49.018;12.078;2022-12-24T12:53:34;97596.25;;;17.37;48.22
26083;BME280;13848;49.018;12.078;2022-12-24T12:56:12;97608.41;;;17.87;46.62
26083;BME280;13848;49.018;12.078;2022-12-24T12:58:48;97605.13;;;16.59;48.34
26083;BME280;13848;49.018;12.078;2022-12-24T13:01:21;97611.19;;;16.02;49.14
26083;BME280;13848;49.018;12.078;2022-12-24T13:04:14;97613.94;;;15.53;51.15
26083;BME280;13848;49.018;12.078;2022-12-24T13:07:17;97626.38;;;14.83;52.45
26083;BME280;13848;49.018;12.078;2022-12-24T13:10:12;97614.84;;;15.15;53.75